Time;durP1;ratioP1;P1;durP2;ratioP2;P2;SDS_P1;SDS_P2;PMS_P1;PMS_P2;Temp;Humidity;BMP_temperature;BMP_pressure;BME280_temperature;BME280_humidity;BME280_pressure;Samples;Min_cycle;Max_cycle;Signal;HPM_P1;HPM_P2
2021/06/16 00:00:41;;;;;;;;;21.75;19.75;;;;;15.56;83.25;99603.41;3596212;39;14264;-56
2021/06/16 00:03:09;;;;;;;;;16.50;16.50;;;;;15.52;83.72;99601.97;3595254;39;14052;-56
2021/06/16 00:05:36;;;;;;;;;22.00;16.25;;;;;15.54;83.63;99608.97;3587045;40;14102;-55
2021/06/16 00:08:04;;;;;;;;;19.75;17.50;;;;;15.72;84.02;99606.59;3586650;39;14255;-54
2021/06/16 00:10:33;;;;;;;;;12.25;10.00;;;;;15.78;82.14;99614.19;3595495;40;14062;-56
2021/06/16 00:13:03;;;;;;;;;14.50;14.00;;;;;15.27;84.18;99608.53;3592095;40;14092;-52
2021/06/16 00:15:40;;;;;;;;;14.00;14.00;;;;;15.73;82.71;99619.13;3596838;39;14098;-56
2021/06/16 00:18:08;;;;;;;;;15.00;13.50;;;;;15.22;84.44;99606.22;3594819;39;14106;-56
2021/06/16 00:20:37;;;;;;;;;16.75;14.00;;;;;15.55;83.84;99610.66;3593750;40;14032;-59
2021/06/16 00:23:06;;;;;;;;;14.50;13.75;;;;;15.86;81.45;99610.84;3596090;40;14049;-57
2021/06/16 00:25:34;;;;;;;;;13.00;13.00;;;;;16.00;80.71;99612.34;3597171;40;14059;-54
2021/06/16 00:28:01;;;;;;;;;13.50;11.50;;;;;15.93;80.76;99614.75;3588867;39;14092;-57
2021/06/16 00:30:30;;;;;;;;;15.25;14.25;;;;;15.87;80.40;99614.41;3589458;39;14046;-56
2021/06/16 00:32:58;;;;;;;;;15.00;14.75;;;;;15.52;83.42;99619.03;3587712;40;14010;-55
2021/06/16 00:35:26;;;;;;;;;12.50;12.50;;;;;15.62;83.04;99619.16;3589592;39;14234;-57
2021/06/16 00:37:54;;;;;;;;;16.00;15.25;;;;;15.54;83.81;99616.22;3595266;39;14049;-55
2021/06/16 00:40:26;;;;;;;;;15.25;14.00;;;;;15.30;84.71;99619.13;3595217;39;14237;-55
2021/06/16 00:42:57;;;;;;;;;19.75;15.25;;;;;14.97;85.50;99617.31;3596432;39;14204;-56
2021/06/16 00:45:25;;;;;;;;;19.50;14.75;;;;;15.19;85.61;99611.84;3593429;39;14054;-56
2021/06/16 00:47:56;;;;;;;;;18.50;16.75;;;;;15.17;85.53;99611.16;3591288;40;14280;-57
2021/06/16 00:50:36;;;;;;;;;14.50;14.50;;;;;14.85;86.88;99611.03;3591086;40;14242;-57
2021/06/16 00:53:05;;;;;;;;;16.25;14.25;;;;;15.07;86.59;99618.28;3590502;40;14635;-56
2021/06/16 00:55:38;;;;;;;;;17.00;15.00;;;;;14.90;87.57;99612.41;3586313;40;14050;-55
2021/06/16 00:58:08;;;;;;;;;21.25;20.50;;;;;14.56;88.60;99605.25;3587208;40;14061;-57
2021/06/16 01:00:43;;;;;;;;;21.25;19.25;;;;;15.08;86.52;99601.91;3594570;40;14562;-56
2021/06/16 01:03:26;;;;;;;;;29.00;26.00;;;;;15.26;85.47;99604.13;3594799;40;14056;-55
2021/06/16 01:06:04;;;;;;;;;43.00;36.00;;;;;15.27;85.07;99600.41;3593949;40;14080;-55
2021/06/16 01:08:39;;;;;;;;;42.50;36.75;;;;;15.20;85.87;99599.22;3593589;39;15110;-55
2021/06/16 01:11:10;;;;;;;;;46.00;38.00;;;;;15.39;85.29;99604.81;3593849;40;14842;-55
2021/06/16 01:13:55;;;;;;;;;37.50;35.00;;;;;14.89;87.02;99604.41;3589955;40;14531;-55
2021/06/16 01:16:34;;;;;;;;;39.75;34.00;;;;;14.56;87.89;99587.22;3594164;40;14117;-54
2021/06/16 01:19:17;;;;;;;;;37.25;32.50;;;;;14.80;88.07;99592.50;3594108;39;14837;-55
2021/06/16 01:22:00;;;;;;;;;31.75;27.75;;;;;14.37;88.46;99592.31;3595762;40;14045;-55
2021/06/16 01:24:31;;;;;;;;;25.50;21.75;;;;;14.09;89.73;99594.50;3594324;40;14259;-54
2021/06/16 01:27:01;;;;;;;;;19.50;18.25;;;;;14.53;87.20;99600.97;3597259;39;14027;-54
2021/06/16 01:29:36;;;;;;;;;19.75;17.75;;;;;14.04;88.38;99604.78;3592177;40;14052;-56
2021/06/16 01:32:06;;;;;;;;;16.00;16.00;;;;;14.16;89.60;99598.41;3594123;40;14056;-55
2021/06/16 01:34:34;;;;;;;;;19.25;15.75;;;;;14.39;87.36;99601.16;3588590;39;14716;-56
2021/06/16 01:37:02;;;;;;;;;19.75;15.50;;;;;14.54;86.06;99602.69;3587163;40;14080;-56
2021/06/16 01:39:36;;;;;;;;;18.25;13.50;;;;;14.76;85.80;99600.97;3596600;40;14042;-56
2021/06/16 01:42:14;;;;;;;;;18.75;17.00;;;;;14.70;86.46;99599.63;3588978;40;14079;-55
2021/06/16 01:44:41;;;;;;;;;16.00;15.75;;;;;14.55;87.12;99600.84;3594588;40;14051;-55
2021/06/16 01:47:10;;;;;;;;;19.50;17.00;;;;;14.69;86.93;99598.78;3591531;40;14204;-55
2021/06/16 01:49:39;;;;;;;;;23.75;17.50;;;;;14.64;87.27;99595.59;3595465;39;14076;-56
2021/06/16 01:52:06;;;;;;;;;18.50;15.75;;;;;14.78;86.76;99596.31;3586964;40;14152;-54
2021/06/16 01:54:35;;;;;;;;;21.75;17.25;;;;;14.29;88.27;99595.63;3586213;40;14234;-54
2021/06/16 01:57:04;;;;;;;;;17.25;13.00;;;;;14.11;89.57;99600.63;3587790;40;14064;-57
2021/06/16 01:59:33;;;;;;;;;22.75;18.50;;;;;14.01;90.32;99608.59;3595725;40;14275;-57
2021/06/16 02:02:00;;;;;;;;;24.25;19.00;;;;;13.88;90.39;99599.72;3596282;40;14277;-56
2021/06/16 02:04:28;;;;;;;;;21.50;17.50;;;;;14.10;89.72;99607.00;3596616;40;14605;-56
2021/06/16 02:07:25;;;;;;;;;25.50;20.25;;;;;13.94;89.57;99606.47;3591403;40;14096;-56
2021/06/16 02:09:54;;;;;;;;;21.25;19.00;;;;;13.95;90.52;99602.78;3601198;39;14207;-56
2021/06/16 02:12:22;;;;;;;;;21.00;21.00;;;;;13.91;89.97;99607.56;3596372;40;14083;-56
2021/06/16 02:15:07;;;;;;;;;25.00;22.00;;;;;13.74;91.08;99611.53;3587583;40;14087;-57
2021/06/16 02:17:37;;;;;;;;;18.00;18.00;;;;;14.48;87.73;99608.53;3587408;40;14249;-57
2021/06/16 02:20:06;;;;;;;;;26.75;20.00;;;;;14.53;86.63;99603.66;3589742;40;14229;-56
2021/06/16 02:22:36;;;;;;;;;16.50;16.50;;;;;14.32;87.79;99605.31;3589307;39;14085;-57
2021/06/16 02:25:05;;;;;;;;;20.50;18.00;;;;;14.07;89.46;99611.78;3589189;40;14045;-56
2021/06/16 02:27:32;;;;;;;;;18.00;17.50;;;;;14.16;89.23;99609.22;3596918;39;14265;-57
2021/06/16 02:29:59;;;;;;;;;16.00;15.00;;;;;13.68;91.26;99609.31;3592866;40;14031;-50
2021/06/16 02:32:27;;;;;;;;;18.00;18.00;;;;;13.74;91.25;99610.69;3596473;39;14002;-56
2021/06/16 02:34:54;;;;;;;;;18.50;17.00;;;;;13.70;90.68;99612.78;3597351;39;14231;-57
2021/06/16 02:37:21;;;;;;;;;20.50;17.25;;;;;14.14;89.57;99611.19;3594098;39;14031;-56
2021/06/16 02:40:08;;;;;;;;;18.00;16.00;;;;;14.22;88.54;99610.63;3587626;39;14064;-57
2021/06/16 02:42:39;;;;;;;;;16.75;16.00;;;;;14.14;88.52;99611.19;3592754;40;13996;-57
2021/06/16 02:45:08;;;;;;;;;16.00;16.00;;;;;13.79;90.39;99611.19;3587929;40;14233;-56
2021/06/16 02:47:43;;;;;;;;;17.00;15.50;;;;;14.32;88.83;99621.53;3592536;40;14242;-56
2021/06/16 02:50:14;;;;;;;;;18.25;16.00;;;;;14.61;86.50;99606.66;3596320;40;14031;-57
2021/06/16 02:52:43;;;;;;;;;12.00;12.00;;;;;14.87;84.89;99609.94;3597095;40;14032;-56
2021/06/16 02:55:12;;;;;;;;;21.00;16.25;;;;;14.69;85.98;99609.59;3595639;39;14577;-56
2021/06/16 02:57:43;;;;;;;;;18.50;16.50;;;;;14.60;86.80;99615.72;3588677;39;14093;-57
2021/06/16 03:00:15;;;;;;;;;13.50;13.50;;;;;14.43;87.02;99616.19;3590078;40;14039;-56
2021/06/16 03:02:47;;;;;;;;;17.00;13.25;;;;;14.65;86.08;99618.06;3597210;39;14107;-57
2021/06/16 03:05:21;;;;;;;;;17.00;15.50;;;;;14.38;87.62;99615.69;3596063;39;14042;-55
2021/06/16 03:07:50;;;;;;;;;24.75;17.50;;;;;14.47;87.87;99625.75;3590288;40;14168;-57
2021/06/16 03:10:21;;;;;;;;;16.50;16.00;;;;;14.30;88.75;99623.50;3595786;40;14251;-57
2021/06/16 03:12:52;;;;;;;;;18.50;16.50;;;;;14.44;88.68;99618.72;3597361;39;13983;-57
2021/06/16 03:15:21;;;;;;;;;20.75;17.75;;;;;14.53;87.99;99617.16;3595317;40;14033;-56
2021/06/16 03:17:49;;;;;;;;;15.75;13.25;;;;;14.53;87.93;99619.88;3596102;39;13998;-55
2021/06/16 03:20:22;;;;;;;;;17.75;17.75;;;;;14.19;88.70;99633.31;3592336;40;14037;-56
2021/06/16 03:22:50;;;;;;;;;16.50;16.50;;;;;14.30;89.58;99628.88;3586970;40;14210;-56
2021/06/16 03:25:19;;;;;;;;;18.50;15.50;;;;;14.61;87.66;99621.97;3594674;39;14229;-54
2021/06/16 03:27:50;;;;;;;;;17.00;13.50;;;;;14.86;85.69;99626.28;3592371;40;14242;-52
2021/06/16 03:30:23;;;;;;;;;21.00;17.00;;;;;15.08;84.56;99631.66;3597498;39;14030;-56
2021/06/16 03:32:54;;;;;;;;;19.00;18.00;;;;;15.18;84.87;99636.34;3596736;39;14051;-52
2021/06/16 03:35:21;;;;;;;;;18.25;14.50;;;;;15.12;84.67;99633.16;3590226;40;14560;-52
2021/06/16 03:37:51;;;;;;;;;14.00;13.00;;;;;15.56;82.10;99625.94;3595484;39;14048;-55
2021/06/16 03:40:20;;;;;;;;;17.50;14.75;;;;;15.59;80.86;99635.66;3600271;39;14563;-56
2021/06/16 03:42:50;;;;;;;;;28.25;23.75;;;;;15.66;81.12;99644.09;3596507;40;14074;-54
2021/06/16 03:45:18;;;;;;;;;41.50;32.75;;;;;15.55;81.51;99635.03;3596707;39;14038;-54
2021/06/16 03:47:48;;;;;;;;;27.25;22.75;;;;;15.42;84.46;99639.72;3591890;40;14296;-56
2021/06/16 03:50:19;;;;;;;;;25.75;22.50;;;;;15.28;84.66;99638.16;3599736;39;14039;-56
2021/06/16 03:52:47;;;;;;;;;36.25;26.75;;;;;15.58;81.52;99645.59;3589470;40;14056;-56
2021/06/16 03:55:17;;;;;;;;;21.50;20.50;;;;;15.68;81.92;99642.13;3586997;40;14263;-56
2021/06/16 03:57:46;;;;;;;;;20.75;15.50;;;;;15.94;80.68;99640.81;3589574;40;14252;-57
2021/06/16 04:00:14;;;;;;;;;17.25;15.75;;;;;15.81;80.08;99645.56;3587007;40;14074;-57
2021/06/16 04:02:47;;;;;;;;;16.75;14.75;;;;;15.88;79.27;99646.78;3587493;40;14135;-57
2021/06/16 04:05:16;;;;;;;;;19.00;13.50;;;;;15.84;80.14;99642.59;3592944;40;14026;-56
2021/06/16 04:07:49;;;;;;;;;16.00;12.50;;;;;15.91;79.27;99643.81;3586284;40;14051;-57
2021/06/16 04:10:18;;;;;;;;;19.00;14.25;;;;;15.65;81.76;99647.81;3587586;40;14121;-58
2021/06/16 04:12:47;;;;;;;;;15.50;14.00;;;;;15.82;81.09;99646.41;3589119;40;14060;-58
2021/06/16 04:15:19;;;;;;;;;14.00;13.25;;;;;15.70;81.13;99657.28;3596707;39;14169;-56
2021/06/16 04:17:47;;;;;;;;;15.25;13.00;;;;;15.71;81.86;99655.44;3594743;39;14007;-57
2021/06/16 04:20:16;;;;;;;;;12.00;12.00;;;;;15.77;81.89;99654.91;3587099;40;14088;-56
2021/06/16 04:22:44;;;;;;;;;14.50;12.75;;;;;16.33;78.50;99651.09;3587796;40;14080;-54
2021/06/16 04:25:12;;;;;;;;;14.75;13.00;;;;;16.63;77.00;99661.13;3591877;40;14463;-53
2021/06/16 04:27:40;;;;;;;;;12.50;11.50;;;;;16.65;76.95;99661.84;3594495;40;14051;-55
2021/06/16 04:30:12;;;;;;;;;12.25;12.25;;;;;16.97;75.32;99661.75;3595947;40;14244;-53
2021/06/16 04:32:41;;;;;;;;;14.75;13.50;;;;;17.13;75.79;99660.41;3596524;39;14012;-50
2021/06/16 04:35:10;;;;;;;;;16.00;13.00;;;;;17.28;75.13;99665.31;3589203;40;14036;-56
2021/06/16 04:37:38;;;;;;;;;13.00;11.50;;;;;18.00;70.95;99674.19;3593024;39;14220;-55
2021/06/16 04:40:08;;;;;;;;;12.00;10.25;;;;;17.95;70.77;99668.31;3585897;40;14117;-59
2021/06/16 04:42:36;;;;;;;;;10.50;10.00;;;;;18.33;69.66;99672.06;3586624;40;13997;-59
2021/06/16 04:45:05;;;;;;;;;14.00;12.25;;;;;18.34;69.77;99668.31;3587057;40;13973;-59
2021/06/16 04:47:34;;;;;;;;;12.75;12.00;;;;;18.51;69.49;99673.03;3586067;40;14094;-59
2021/06/16 04:50:10;;;;;;;;;12.00;11.25;;;;;19.15;68.01;99673.31;3596496;39;13995;-59
2021/06/16 04:52:38;;;;;;;;;14.25;13.50;;;;;19.76;65.10;99675.44;3595602;39;13968;-59
2021/06/16 04:55:09;;;;;;;;;15.00;13.00;;;;;21.66;60.69;99682.09;3586856;40;14003;-59
2021/06/16 04:57:36;;;;;;;;;11.00;10.00;;;;;20.48;62.88;99680.88;3585700;40;14543;-60
2021/06/16 05:00:07;;;;;;;;;12.50;10.50;;;;;19.90;65.52;99680.31;3590190;39;12957;-59
2021/06/16 05:02:36;;;;;;;;;13.75;11.25;;;;;19.75;67.42;99673.72;3597618;40;12791;-60
2021/06/16 05:05:05;;;;;;;;;13.00;10.75;;;;;20.41;63.37;99677.94;3595382;39;12974;-59
2021/06/16 05:07:33;;;;;;;;;10.50;10.50;;;;;20.54;63.44;99677.56;3588370;40;12776;-60
2021/06/16 05:10:00;;;;;;;;;13.00;11.50;;;;;20.32;65.10;99668.81;3588024;40;13119;-59
2021/06/16 05:12:27;;;;;;;;;11.00;8.25;;;;;;;;3594869;40;13226;-60
2021/06/16 05:14:55;;;;;;;;;8.25;6.75;;;;;21.07;61.75;99678.41;3592277;39;12517;-58
2021/06/16 05:17:22;;;;;;;;;11.75;10.00;;;;;21.46;61.59;99673.34;3597590;40;12864;-59
2021/06/16 05:19:56;;;;;;;;;11.00;8.00;;;;;21.50;60.80;99682.06;3588734;39;12872;-59
2021/06/16 05:22:25;;;;;;;;;10.00;9.00;;;;;21.55;61.46;99686.00;3593335;40;12078;-59
2021/06/16 05:24:53;;;;;;;;;9.00;8.00;;;;;21.30;60.57;99695.06;3588625;39;12625;-60
2021/06/16 05:27:22;;;;;;;;;12.25;10.75;;;;;21.83;59.36;99697.53;3587804;40;12048;-59
2021/06/16 05:29:51;;;;;;;;;10.25;9.50;;;;;21.52;59.42;99694.53;3594318;40;12272;-59
2021/06/16 05:32:18;;;;;;;;;11.00;10.00;;;;;21.39;58.96;99697.72;3597865;39;12102;-60
2021/06/16 05:34:46;;;;;;;;;9.75;8.00;;;;;21.77;59.13;99703.66;3598282;39;11878;-57
2021/06/16 05:37:14;;;;;;;;;9.50;8.50;;;;;22.12;56.57;99713.50;3592717;39;11699;-57
2021/06/16 05:39:41;;;;;;;;;11.00;9.00;;;;;22.32;55.72;99714.03;3594057;40;11608;-59
2021/06/16 05:42:13;;;;;;;;;11.00;10.00;;;;;22.08;55.50;99711.25;3591840;39;11704;-60
2021/06/16 05:44:40;;;;;;;;;9.25;9.25;;;;;22.11;55.53;99706.28;3587729;40;12597;-60
2021/06/16 05:47:08;;;;;;;;;9.50;9.00;;;;;22.44;54.02;99711.00;3587546;40;11559;-59
2021/06/16 05:49:35;;;;;;;;;9.25;7.25;;;;;22.30;53.92;99709.75;3595703;40;11788;-56
2021/06/16 05:52:03;;;;;;;;;8.75;8.50;;;;;21.82;55.85;99705.88;3598187;39;11402;-60
2021/06/16 05:54:31;;;;;;;;;9.75;8.75;;;;;22.19;55.84;99712.84;3597395;40;11523;-59
2021/06/16 05:56:58;;;;;;;;;11.50;10.00;;;;;22.68;53.75;99710.13;3596660;39;12321;-60
2021/06/16 05:59:26;;;;;;;;;9.00;9.00;;;;;22.63;54.29;99715.25;3593994;40;11624;-60
2021/06/16 06:01:53;;;;;;;;;10.00;10.00;;;;;22.70;54.33;99706.19;3598194;39;11173;-58
2021/06/16 06:04:21;;;;;;;;;9.25;9.25;;;;;22.73;53.82;99713.22;3595156;39;11155;-56
2021/06/16 06:06:48;;;;;;;;;7.75;7.75;;;;;23.04;53.22;99707.03;3598071;39;11033;-58
2021/06/16 06:09:16;;;;;;;;;9.25;8.75;;;;;22.73;51.69;99710.47;3588648;39;10893;-57
2021/06/16 06:11:43;;;;;;;;;10.75;7.50;;;;;23.11;51.03;99708.88;3587157;40;11229;-54
2021/06/16 06:14:11;;;;;;;;;8.75;7.50;;;;;22.74;51.02;99706.69;3586996;40;11457;-56
2021/06/16 06:16:38;;;;;;;;;9.75;7.25;;;;;23.39;50.69;99706.59;3587715;40;11142;-56
2021/06/16 06:19:05;;;;;;;;;10.00;7.75;;;;;22.93;50.31;99716.41;3591220;40;11133;-55
2021/06/16 06:21:33;;;;;;;;;8.00;8.00;;;;;22.99;50.84;99716.63;3597289;39;11333;-56
2021/06/16 06:24:02;;;;;;;;;9.00;7.75;;;;;23.54;50.38;99714.06;3590278;39;10855;-56
2021/06/16 06:26:33;;;;;;;;;9.00;9.00;;;;;23.37;49.48;99713.28;3587836;40;11020;-58
2021/06/16 06:29:01;;;;;;;;;9.75;8.00;;;;;23.03;51.25;99719.00;3593560;40;10626;-56
2021/06/16 06:31:29;;;;;;;;;9.00;8.50;;;;;23.30;50.19;99718.63;3589514;40;10873;-56
2021/06/16 06:33:57;;;;;;;;;11.00;8.00;;;;;24.19;48.77;99719.22;3597155;39;10614;-57
2021/06/16 06:36:25;;;;;;;;;9.00;8.00;;;;;24.10;47.78;99717.59;3597637;40;10500;-58
2021/06/16 06:38:52;;;;;;;;;8.50;8.00;;;;;23.77;47.65;99717.75;3591340;39;10474;-57
2021/06/16 06:41:20;;;;;;;;;8.00;7.75;;;;;23.53;49.56;99723.31;3590655;40;10462;-56
2021/06/16 06:43:47;;;;;;;;;10.00;9.00;;;;;24.31;48.36;99722.41;3597824;39;10598;-57
2021/06/16 06:46:14;;;;;;;;;9.00;9.00;;;;;23.72;49.32;99731.16;3598118;39;10639;-58
2021/06/16 06:48:42;;;;;;;;;7.00;7.00;;;;;24.61;47.47;99728.91;3591799;39;10452;-55
2021/06/16 06:51:10;;;;;;;;;9.00;9.00;;;;;25.02;46.64;99720.28;3587233;40;10497;-54
2021/06/16 06:53:38;;;;;;;;;8.00;8.00;;;;;24.81;48.05;99728.41;3587714;40;10352;-58
2021/06/16 06:56:05;;;;;;;;;8.33;8.33;;;;;24.52;48.75;99741.00;3593420;40;10209;-58
2021/06/16 06:58:33;;;;;;;;;8.00;8.00;;;;;24.46;46.82;99733.47;3595940;40;9959;-56
2021/06/16 07:01:00;;;;;;;;;9.00;8.00;;;;;23.80;47.67;99731.13;3589437;39;10078;-55
2021/06/16 07:03:28;;;;;;;;;9.00;9.00;;;;;24.58;47.87;99740.25;3587205;40;10307;-58
2021/06/16 07:05:55;;;;;;;;;12.00;9.50;;;;;24.90;47.08;99733.63;3587718;40;10383;-56
2021/06/16 07:08:23;;;;;;;;;15.50;11.25;;;;;24.56;48.22;99731.34;3591043;40;10462;-58
2021/06/16 07:10:51;;;;;;;;;8.00;8.00;;;;;24.80;47.65;99727.53;3591882;39;10765;-54
2021/06/16 07:13:18;;;;;;;;;9.33;8.67;;;;;24.87;46.91;99722.16;3597685;39;9848;-56
2021/06/16 07:16:26;;;;;;;;;10.33;8.67;;;;;25.36;47.00;99724.44;3589685;39;10091;-55
2021/06/16 07:18:54;;;;;;;;;9.00;9.00;;;;;25.37;46.49;99726.13;3588836;39;10071;-57
2021/06/16 07:21:21;;;;;;;;;9.00;7.00;;;;;24.86;47.08;99720.47;3587470;40;9926;-53
2021/06/16 07:23:48;;;;;;;;;10.67;9.33;;;;;25.47;46.54;99718.47;3587133;40;9849;-57
2021/06/16 07:26:17;;;;;;;;;11.00;8.00;;;;;26.26;45.50;99720.50;3587228;40;9829;-56
2021/06/16 07:28:44;;;;;;;;;11.00;10.00;;;;;24.91;44.45;99718.84;3594465;40;9824;-58
2021/06/16 07:31:12;;;;;;;;;10.67;9.00;;;;;25.47;43.59;99717.59;3587658;40;9761;-56
2021/06/16 07:33:39;;;;;;;;;9.00;8.00;;;;;25.16;44.86;99716.72;3597175;40;10059;-56
2021/06/16 07:36:07;;;;;;;;;6.00;5.67;;;;;25.11;45.23;99713.66;3596642;40;10017;-58
2021/06/16 07:38:34;;;;;;;;;8.50;7.00;;;;;25.90;42.33;99729.63;3590947;39;9979;-56
2021/06/16 07:41:03;;;;;;;;;9.67;9.67;;;;;25.69;42.71;99721.28;3593263;40;10081;-59
2021/06/16 07:43:30;;;;;;;;;8.33;8.00;;;;;25.80;42.81;99718.03;3587112;40;9856;-59
2021/06/16 07:45:57;;;;;;;;;6.00;6.00;;;;;25.27;42.58;99723.66;3586809;39;9808;-60
2021/06/16 07:48:25;;;;;;;;;7.00;7.00;;;;;25.51;42.17;99722.50;3592313;40;9724;-59
2021/06/16 07:50:53;;;;;;;;;8.00;8.00;;;;;25.92;41.89;99727.53;3590503;39;9796;-60
2021/06/16 07:53:20;;;;;;;;;10.75;9.00;;;;;26.21;42.00;99725.75;3587203;40;10020;-60
2021/06/16 07:55:47;;;;;;;;;10.00;7.75;;;;;25.98;42.68;99732.25;3589702;40;9995;-59
2021/06/16 07:58:15;;;;;;;;;7.50;7.00;;;;;25.70;41.97;99725.72;3589921;40;9804;-59
2021/06/16 08:00:42;;;;;;;;;8.50;7.75;;;;;25.91;40.64;99730.47;3587373;40;9987;-59
2021/06/16 08:03:10;;;;;;;;;11.25;7.25;;;;;25.62;41.99;99730.31;3587258;40;9746;-60
2021/06/16 08:05:37;;;;;;;;;6.00;6.00;;;;;25.90;41.06;99728.78;3586884;40;9848;-60
2021/06/16 08:08:05;;;;;;;;;8.50;8.50;;;;;26.10;41.26;99729.03;3590592;40;10323;-60
2021/06/16 08:10:33;;;;;;;;;7.00;7.00;;;;;26.16;40.68;99717.22;3591120;39;10002;-58
2021/06/16 08:13:01;;;;;;;;;8.00;7.75;;;;;26.45;40.92;99722.59;3588656;40;9816;-60
2021/06/16 08:15:28;;;;;;;;;5.75;5.25;;;;;25.98;40.52;99720.41;3587107;40;9815;-61
2021/06/16 08:17:56;;;;;;;;;9.75;8.00;;;;;26.18;38.87;99727.00;3593234;40;9772;-53
2021/06/16 08:20:24;;;;;;;;;6.75;6.75;;;;;26.52;38.01;99732.88;3594709;39;9753;-55
2021/06/16 08:22:51;;;;;;;;;5.25;5.25;;;;;26.14;39.02;99730.31;3592504;40;9753;-56
2021/06/16 08:25:19;;;;;;;;;8.50;8.00;;;;;26.39;39.67;99723.41;3590251;39;10018;-54
2021/06/16 08:27:47;;;;;;;;;7.75;6.75;;;;;26.19;39.71;99723.19;3589030;40;9883;-56
2021/06/16 08:30:15;;;;;;;;;7.00;5.75;;;;;26.61;39.31;99720.66;3594729;39;9965;-56
2021/06/16 08:32:44;;;;;;;;;8.50;8.25;;;;;26.65;37.98;99728.34;3590739;39;9814;-59
2021/06/16 08:35:13;;;;;;;;;5.50;5.50;;;;;26.10;38.47;99729.88;3591769;40;9891;-55
2021/06/16 08:37:41;;;;;;;;;8.25;6.75;;;;;25.90;38.22;99723.25;3591031;40;9816;-57
2021/06/16 08:40:10;;;;;;;;;8.00;6.75;;;;;26.35;36.66;99724.81;3591823;40;9957;-56
2021/06/16 08:42:38;;;;;;;;;6.75;6.75;;;;;26.66;36.50;99730.03;3594868;39;9850;-57
2021/06/16 08:45:07;;;;;;;;;8.00;7.00;;;;;26.05;38.35;99726.84;3587034;39;9745;-51
2021/06/16 08:47:35;;;;;;;;;6.00;6.00;;;;;26.22;40.21;99727.44;3587107;40;9840;-58
2021/06/16 08:50:09;;;;;;;;;6.25;6.25;;;;;26.69;37.54;99739.81;3585718;40;10020;-60
2021/06/16 08:52:38;;;;;;;;;9.25;6.25;;;;;26.59;38.75;99740.13;3585837;40;11350;-59
2021/06/16 08:55:10;;;;;;;;;6.25;5.50;;;;;25.94;38.60;99730.94;3587507;39;9732;-55
2021/06/16 08:57:43;;;;;;;;;6.25;5.75;;;;;25.72;38.24;99732.72;3587340;40;9720;-55
2021/06/16 09:00:12;;;;;;;;;7.25;7.00;;;;;26.03;38.98;99732.53;3586737;40;9827;-59
2021/06/16 09:02:41;;;;;;;;;7.50;6.00;;;;;26.55;38.60;99738.84;3587528;39;9819;-57
2021/06/16 09:05:09;;;;;;;;;8.50;7.75;;;;;26.41;38.70;99739.72;3586648;40;9840;-57
2021/06/16 09:07:39;;;;;;;;;7.50;7.50;;;;;26.35;39.12;99743.25;3586571;40;9856;-58
2021/06/16 09:10:19;;;;;;;;;6.25;5.00;;;;;26.10;39.11;99745.53;3588743;40;9919;-58
2021/06/16 09:13:07;;;;;;;;;3.00;3.00;;;;;26.45;37.82;99744.63;3592624;40;10014;-57
2021/06/16 09:15:34;;;;;;;;;8.50;6.00;;;;;26.55;37.54;99738.84;3593603;39;9790;-60
2021/06/16 09:18:12;;;;;;;;;6.75;6.25;;;;;26.84;38.55;99743.34;3587107;40;9978;-58
2021/06/16 09:20:47;;;;;;;;;7.25;6.00;;;;;26.63;37.73;99743.38;3586984;40;9758;-60
2021/06/16 09:23:27;;;;;;;;;9.00;8.00;;;;;26.76;37.76;99743.50;3586378;40;9799;-59
2021/06/16 09:26:10;;;;;;;;;8.00;6.75;;;;;26.95;38.76;99743.84;3586437;40;9812;-55
2021/06/16 09:28:43;;;;;;;;;7.00;7.00;;;;;27.06;37.36;99743.31;3592858;40;9834;-59
2021/06/16 09:31:15;;;;;;;;;5.50;5.50;;;;;27.13;37.82;99745.06;3589260;39;9797;-58
2021/06/16 09:33:43;;;;;;;;;6.25;6.25;;;;;27.75;36.91;99746.13;3588114;40;9862;-58
2021/06/16 09:36:14;;;;;;;;;5.50;5.25;;;;;27.47;36.31;99757.22;3585328;40;10517;-60
2021/06/16 09:38:46;;;;;;;;;5.25;5.25;;;;;27.20;35.54;99753.44;3586574;40;9769;-58
2021/06/16 09:41:23;;;;;;;;;8.75;6.50;;;;;27.47;35.52;99750.84;3586174;40;9758;-59
2021/06/16 09:43:55;;;;;;;;;6.50;6.50;;;;;27.40;36.70;99749.94;3586575;40;9943;-59
2021/06/16 09:46:22;;;;;;;;;6.75;5.00;;;;;27.50;35.19;99750.44;3591604;39;9788;-55
2021/06/16 09:48:50;;;;;;;;;6.25;5.50;;;;;27.32;33.98;99742.69;3597316;39;9751;-59
2021/06/16 09:51:26;;;;;;;;;6.00;5.00;;;;;27.70;34.21;99743.13;3596521;39;9769;-59
2021/06/16 09:54:13;;;;;;;;;4.50;4.25;;;;;26.67;35.41;99744.66;3586896;40;9813;-60
2021/06/16 09:56:52;;;;;;;;;6.00;5.25;;;;;27.10;35.94;99745.47;3588270;40;9840;-60
2021/06/16 09:59:42;;;;;;;;;5.25;4.50;;;;;27.08;35.19;99738.44;3588029;40;9788;-60
2021/06/16 10:02:30;;;;;;;;;6.75;5.25;;;;;27.45;35.49;99733.63;3588154;40;9750;-60
2021/06/16 10:05:01;;;;;;;;;3.75;3.75;;;;;27.69;33.97;99744.16;3587420;40;10455;-60
2021/06/16 10:07:33;;;;;;;;;4.75;4.75;;;;;27.00;34.40;99730.34;3587489;40;9804;-60
2021/06/16 10:10:13;;;;;;;;;7.00;4.75;;;;;27.12;34.97;99742.50;3587810;40;9832;-60
2021/06/16 10:12:43;;;;;;;;;5.00;5.00;;;;;27.04;34.19;99726.09;3592781;40;9819;-60
2021/06/16 10:15:19;;;;;;;;;4.75;4.00;;;;;27.58;33.96;99736.47;3596875;40;10296;-58
2021/06/16 10:17:50;;;;;;;;;4.00;4.00;;;;;27.74;32.46;99727.84;3598124;39;9770;-60
2021/06/16 10:20:18;;;;;;;;;12.75;12.25;;;;;27.23;32.17;99724.59;3597613;39;9808;-59
2021/06/16 10:22:46;;;;;;;;;5.50;5.50;;;;;27.35;34.04;99732.09;3596739;40;9724;-59
2021/06/16 10:25:13;;;;;;;;;7.75;5.75;;;;;27.46;33.30;99738.09;3597568;39;10019;-60
2021/06/16 10:27:56;;;;;;;;;6.00;6.00;;;;;26.91;33.64;99729.63;3588124;40;9758;-59
2021/06/16 10:30:28;;;;;;;;;5.25;5.25;;;;;27.48;33.55;99727.72;3594555;40;10200;-59
2021/06/16 10:32:56;;;;;;;;;5.00;4.00;;;;;28.19;34.54;99731.03;3591145;40;9851;-59
2021/06/16 10:35:29;;;;;;;;;8.00;6.00;;;;;27.50;33.67;99722.84;3586489;40;9972;-59
2021/06/16 10:38:12;;;;;;;;;5.75;5.75;;;;;27.47;31.80;99715.00;3587891;40;10581;-59
2021/06/16 10:40:54;;;;;;;;;5.00;4.50;;;;;28.01;31.84;99716.94;3589769;40;9783;-58
2021/06/16 10:43:40;;;;;;;;;5.00;5.00;;;;;28.06;31.83;99725.47;3589967;40;9898;-58
2021/06/16 10:46:12;;;;;;;;;5.00;5.00;;;;;27.94;32.17;99713.34;3587616;40;9739;-59
2021/06/16 10:48:54;;;;;;;;;5.00;5.00;;;;;27.70;33.04;99710.03;3603443;39;9789;-61
2021/06/16 10:51:29;;;;;;;;;4.50;4.50;;;;;28.01;32.98;99711.44;3597931;39;9758;-59
2021/06/16 10:54:19;;;;;;;;;4.50;4.50;;;;;28.22;32.77;99713.19;3592434;39;9732;-58
2021/06/16 10:56:59;;;;;;;;;4.75;4.50;;;;;28.15;32.59;99718.72;3593485;39;9996;-61
2021/06/16 10:59:44;;;;;;;;;5.00;4.25;;;;;28.37;30.68;99721.31;3597017;39;9768;-59
2021/06/16 11:02:33;;;;;;;;;5.00;4.75;;;;;27.92;29.07;99719.03;3587501;40;9747;-58
2021/06/16 11:05:26;;;;;;;;;4.00;3.00;;;;;28.26;31.59;99713.63;3588400;40;10486;-59
2021/06/16 11:07:55;;;;;;;;;5.00;5.00;;;;;27.98;31.32;99720.13;3593339;40;9782;-60
2021/06/16 11:10:24;;;;;;;;;4.00;4.00;;;;;28.16;30.90;99720.41;3588044;40;9779;-60
2021/06/16 11:12:54;;;;;;;;;4.00;4.00;;;;;28.42;31.94;99708.56;3595919;40;9853;-60
2021/06/16 11:15:24;;;;;;;;;4.50;4.00;;;;;28.11;31.49;99711.88;3587501;40;9944;-59
2021/06/16 11:17:57;;;;;;;;;28.00;24.33;;;;;28.32;31.23;99705.34;3588849;40;9809;-58
2021/06/16 11:20:42;;;;;;;;;28.00;27.00;;;;;28.49;32.04;99713.25;3596247;40;9996;-60
2021/06/16 11:23:23;;;;;;;;;4.25;3.00;;;;;27.99;32.09;99708.03;3595933;40;10506;-60
2021/06/16 11:25:51;;;;;;;;;5.00;4.00;;;;;28.07;32.24;99709.75;3591418;39;9913;-61
2021/06/16 11:28:21;;;;;;;;;5.25;5.00;;;;;28.09;32.80;99707.63;3587967;40;9807;-58
2021/06/16 11:30:59;;;;;;;;;7.25;5.50;;;;;28.30;32.03;99709.38;3587338;40;10027;-60
2021/06/16 11:33:32;;;;;;;;;5.00;5.00;;;;;28.22;31.89;99702.13;3592893;40;9761;-60
2021/06/16 11:36:20;;;;;;;;;6.00;4.75;;;;;28.50;31.20;99710.31;3587495;40;9836;-59
2021/06/16 11:39:04;;;;;;;;;4.00;4.00;;;;;28.47;31.39;99710.72;3587161;40;9919;-58
2021/06/16 11:41:32;;;;;;;;;4.00;4.00;;;;;28.14;30.87;99711.47;3587303;40;9745;-59
2021/06/16 11:44:10;;;;;;;;;4.75;4.75;;;;;27.63;32.09;99698.09;3591490;40;9819;-60
2021/06/16 11:46:41;;;;;;;;;7.75;7.00;;;;;27.97;32.63;99705.47;3595682;40;9752;-60